Newry, South Carolina
Current Conditions -  °F | °C
As of 9:54 AM on Monday 24 Nov 2014 (Local Time) from KCEU Reporting Station
Overcast Overcast  
Wind Chill: 61°   Ceiling: 700
Heat Index: 61°   Visibility: 8mi
Dew Point: 56°   Wind: 3mph
Humidity: 83%   Direction: 250°WSW
Pressure: 29.83"   Gusts: NA
Location:  34.72°N, 82.91°W
Report Text: KCEU 241454Z AUTO 25003KT 8SM BKN007 OVC013 16/13 A2983 RMK AO2 CIG 005V010 SLP097 T01610133 53011
Loading
Personal Weather Stations






























Interactive Weather Map New forecast layout! Learn more

10-Day Weather Forecast

Advertisements
Track Severe Weather on mobile